createdAt,value
2022-11-03T00:01:10.734Z,8.70
2022-11-03T00:03:37.334Z,8.68
2022-11-03T00:06:04.100Z,8.67
2022-11-03T00:08:39.987Z,8.64
2022-11-03T00:11:10.439Z,8.64
2022-11-03T00:13:38.621Z,8.61
2022-11-03T00:16:06.304Z,8.58
2022-11-03T00:18:33.556Z,8.56
2022-11-03T00:21:05.150Z,8.54
2022-11-03T00:23:34.622Z,8.52
2022-11-03T00:26:07.842Z,8.50
2022-11-03T00:28:35.096Z,8.49
2022-11-03T00:31:05.659Z,8.47
2022-11-03T00:33:32.665Z,8.45
2022-11-03T00:36:00.976Z,8.45
2022-11-03T00:38:28.945Z,8.43
2022-11-03T00:41:00.034Z,8.43
2022-11-03T00:43:28.356Z,8.41
2022-11-03T00:45:55.879Z,8.41
2022-11-03T00:48:22.948Z,8.39
2022-11-03T00:50:49.525Z,8.39
2022-11-03T00:53:15.971Z,8.39
2022-11-03T00:55:42.505Z,8.40
2022-11-03T00:58:08.973Z,8.38
2022-11-03T01:00:35.434Z,8.39
2022-11-03T01:03:01.908Z,8.38
2022-11-03T01:05:28.386Z,8.36
2022-11-03T01:07:54.983Z,8.36
2022-11-03T01:10:21.548Z,8.36
2022-11-03T01:12:48.029Z,8.34
2022-11-03T01:15:14.576Z,8.35
2022-11-03T01:17:41.046Z,8.35
2022-11-03T01:20:08.407Z,8.35
2022-11-03T01:22:34.950Z,8.35
2022-11-03T01:25:01.459Z,8.38
2022-11-03T01:31:13.965Z,8.37
2022-11-03T01:33:41.051Z,8.39
2022-11-03T01:36:08.499Z,8.39
2022-11-03T01:38:36.543Z,8.38
2022-11-03T01:41:04.347Z,8.31
2022-11-03T01:43:31.499Z,8.38
2022-11-03T01:46:05.426Z,8.39
2022-11-03T01:48:34.411Z,8.39
2022-11-03T01:51:02.959Z,8.40
2022-11-03T01:53:30.261Z,8.38
2022-11-03T01:55:59.374Z,8.37
2022-11-03T01:58:37.346Z,8.35
2022-11-03T02:01:04.144Z,8.35
2022-11-03T02:03:45.067Z,8.35
2022-11-03T02:06:12.276Z,8.35
2022-11-03T02:08:46.887Z,8.34
2022-11-03T02:11:14.478Z,8.32
2022-11-03T02:13:41.468Z,8.30
2022-11-03T02:16:08.047Z,8.28
2022-11-03T02:18:35.176Z,8.28
2022-11-03T02:21:30.458Z,8.24
2022-11-03T02:24:18.595Z,8.21
2022-11-03T02:26:49.358Z,8.19
2022-11-03T02:29:16.286Z,8.18
2022-11-03T02:31:50.113Z,8.16
2022-11-03T02:34:42.669Z,8.12
2022-11-03T02:37:17.459Z,8.09
2022-11-03T02:39:48.689Z,8.05
2022-11-03T02:42:18.193Z,8.04
2022-11-03T02:44:46.572Z,8.01
2022-11-03T02:47:14.641Z,7.99
2022-11-03T02:49:49.814Z,7.97
2022-11-03T02:52:37.960Z,7.93
2022-11-03T02:55:19.656Z,7.87
2022-11-03T02:58:14.380Z,7.91
2022-11-03T03:01:01.443Z,7.89
2022-11-03T03:03:33.292Z,7.86
2022-11-03T03:06:05.639Z,7.86
2022-11-03T03:08:35.075Z,7.85
2022-11-03T03:11:04.940Z,7.82
2022-11-03T03:13:33.596Z,7.84
2022-11-03T03:16:12.149Z,7.82
2022-11-03T03:19:06.503Z,7.81
2022-11-03T03:21:39.552Z,7.79
2022-11-03T03:24:14.982Z,7.79
2022-11-03T03:26:45.078Z,7.79
2022-11-03T03:29:15.868Z,7.79
2022-11-03T03:31:47.959Z,7.78
2022-11-03T03:34:33.932Z,7.79
2022-11-03T03:37:02.477Z,7.78
2022-11-03T03:39:33.918Z,7.77
2022-11-03T03:42:03.058Z,7.76
2022-11-03T03:44:32.328Z,7.78
2022-11-03T03:47:03.763Z,7.77
2022-11-03T03:49:30.406Z,7.77
2022-11-03T03:51:56.882Z,7.78
2022-11-03T03:54:23.336Z,7.77
2022-11-03T03:56:58.077Z,7.74
2022-11-03T03:59:24.589Z,7.75
2022-11-03T04:01:51.314Z,7.74
2022-11-03T04:04:17.870Z,7.73
2022-11-03T04:06:44.547Z,7.73
2022-11-03T04:09:11.220Z,7.73
2022-11-03T04:11:37.664Z,7.73
2022-11-03T04:14:04.297Z,7.74
2022-11-03T04:16:30.834Z,7.77
2022-11-03T04:18:57.478Z,7.79
2022-11-03T04:21:23.931Z,7.82
2022-11-03T04:23:50.905Z,7.86
2022-11-03T04:26:20.470Z,7.90
2022-11-03T04:28:46.941Z,7.95
2022-11-03T04:31:15.177Z,8.02
2022-11-03T04:33:42.007Z,8.01
2022-11-03T04:36:22.142Z,8.13
2022-11-03T04:38:50.281Z,8.21
2022-11-03T04:41:36.650Z,8.28
2022-11-03T04:44:10.679Z,8.35
2022-11-03T04:46:37.253Z,8.40
2022-11-03T04:49:10.753Z,8.45
2022-11-03T04:51:37.196Z,8.49
2022-11-03T04:54:15.533Z,8.53
2022-11-03T04:56:42.028Z,8.58
2022-11-03T04:59:13.333Z,8.62
2022-11-03T05:01:40.563Z,8.67
2022-11-03T05:04:16.277Z,8.70
2022-11-03T05:06:49.994Z,8.76
2022-11-03T05:09:23.204Z,8.81
2022-11-03T05:11:49.737Z,8.86
2022-11-03T05:14:27.295Z,8.91
2022-11-03T05:16:55.326Z,8.96
2022-11-03T05:19:27.495Z,8.94
2022-11-03T05:21:58.078Z,9.06
2022-11-03T05:24:25.060Z,9.12
2022-11-03T05:26:53.098Z,9.18
2022-11-03T05:29:41.090Z,9.22
2022-11-03T05:32:14.547Z,9.29
2022-11-03T05:34:43.865Z,9.35
2022-11-03T05:37:27.194Z,9.40
2022-11-03T05:39:57.469Z,9.48
2022-11-03T05:42:34.141Z,9.53
2022-11-03T05:45:04.558Z,9.58
2022-11-03T05:47:38.219Z,9.63
2022-11-03T05:50:20.883Z,9.69
2022-11-03T05:52:49.708Z,9.74
2022-11-03T05:55:37.213Z,9.77
2022-11-03T05:58:25.375Z,9.82
2022-11-03T06:00:52.804Z,9.88
2022-11-03T06:03:25.583Z,9.92
2022-11-03T06:05:53.364Z,9.97
2022-11-03T06:10:58.050Z,10.05
2022-11-03T06:13:32.677Z,10.08
2022-11-03T06:16:02.655Z,10.12
2022-11-03T06:18:36.818Z,10.16
2022-11-03T06:21:07.791Z,10.20
2022-11-03T06:23:36.198Z,10.23
2022-11-03T06:26:03.941Z,10.25
2022-11-03T06:28:34.234Z,10.28
2022-11-03T06:31:00.824Z,10.30
2022-11-03T06:33:30.113Z,10.32
2022-11-03T06:36:01.867Z,10.34
2022-11-03T06:38:31.738Z,10.39
2022-11-03T06:40:58.797Z,10.42
2022-11-03T06:43:31.263Z,10.47
2022-11-03T06:45:58.938Z,10.51
2022-11-03T06:48:28.115Z,10.53
2022-11-03T06:50:56.316Z,10.58
2022-11-03T06:53:27.459Z,10.51
2022-11-03T06:55:54.497Z,10.62
2022-11-03T06:58:37.337Z,10.64
2022-11-03T07:01:31.181Z,10.67
2022-11-03T07:04:03.349Z,10.71
2022-11-03T07:06:32.266Z,10.73
2022-11-03T07:09:01.111Z,10.75
2022-11-03T07:11:35.500Z,10.77
2022-11-03T07:14:11.539Z,10.80
2022-11-03T07:16:47.237Z,10.84
2022-11-03T07:19:21.863Z,10.88
2022-11-03T07:22:21.976Z,10.92
2022-11-03T07:24:53.966Z,10.96
2022-11-03T07:27:39.063Z,10.97
2022-11-03T07:30:08.136Z,11.01
2022-11-03T07:32:35.364Z,11.03
2022-11-03T07:36:00.280Z,11.02
2022-11-03T07:38:24.658Z,11.07
2022-11-03T07:40:51.768Z,10.99
2022-11-03T07:43:36.082Z,11.04
2022-11-03T07:46:04.678Z,11.06
2022-11-03T07:48:44.463Z,11.05
2022-11-03T07:51:31.004Z,11.04
2022-11-03T07:54:13.550Z,11.05
2022-11-03T07:56:43.375Z,11.04
2022-11-03T07:59:09.864Z,11.04
2022-11-03T08:01:45.484Z,11.03
2022-11-03T08:04:21.699Z,11.03
2022-11-03T08:06:48.545Z,11.02
2022-11-03T08:09:15.695Z,11.02
2022-11-03T08:11:42.163Z,11.02
2022-11-03T08:14:08.926Z,11.05
2022-11-03T08:16:35.425Z,11.06
2022-11-03T08:19:02.091Z,11.11
2022-11-03T08:21:28.983Z,11.14
2022-11-03T08:23:55.497Z,11.19
2022-11-03T08:26:22.095Z,11.21
2022-11-03T08:28:48.728Z,11.25
2022-11-03T08:31:15.465Z,11.28
2022-11-03T08:33:42.002Z,11.30
2022-11-03T08:36:08.845Z,11.33
2022-11-03T08:38:35.471Z,11.35
2022-11-03T08:41:02.045Z,11.39
2022-11-03T08:43:28.919Z,11.42
2022-11-03T08:45:55.868Z,11.46
2022-11-03T08:48:25.269Z,11.49
2022-11-03T08:50:51.826Z,11.53
2022-11-03T08:53:18.325Z,11.57
2022-11-03T08:55:45.095Z,11.60
2022-11-03T08:58:11.753Z,11.65
2022-11-03T09:00:41.130Z,11.67
2022-11-03T09:03:08.043Z,11.68
2022-11-03T09:05:34.679Z,11.72
2022-11-03T09:10:47.937Z,11.79
2022-11-03T09:13:17.282Z,11.83
2022-11-03T09:15:44.175Z,11.86
2022-11-03T09:18:11.023Z,11.90
2022-11-03T09:20:37.783Z,11.95
2022-11-03T09:23:04.392Z,12.01
2022-11-03T09:25:30.911Z,12.04
2022-11-03T09:27:57.473Z,12.09
2022-11-03T09:30:23.996Z,12.08
2022-11-03T09:32:50.674Z,12.13
2022-11-03T09:35:17.280Z,12.16
2022-11-03T09:37:44.278Z,12.20
2022-11-03T09:40:13.596Z,12.23
2022-11-03T09:42:40.906Z,12.26
2022-11-03T09:45:08.378Z,12.29
2022-11-03T09:47:40.455Z,12.31
2022-11-03T09:50:14.118Z,12.37
2022-11-03T09:52:40.872Z,12.43
2022-11-03T09:55:21.642Z,12.48
2022-11-03T09:57:48.507Z,12.50
2022-11-03T10:00:24.411Z,12.52
2022-11-03T10:02:51.059Z,12.56
2022-11-03T10:05:24.961Z,12.60
2022-11-03T10:10:41.475Z,12.78
2022-11-03T10:13:08.541Z,12.83
2022-11-03T10:15:35.539Z,12.90
2022-11-03T10:18:02.431Z,12.98
2022-11-03T10:20:29.471Z,13.04
2022-11-03T10:22:55.908Z,13.07
2022-11-03T10:25:35.906Z,13.11
2022-11-03T10:28:17.657Z,13.15
2022-11-03T10:31:10.530Z,13.18
2022-11-03T10:33:39.796Z,13.22
2022-11-03T10:36:14.984Z,13.25
2022-11-03T10:38:42.179Z,13.29
2022-11-03T10:41:14.576Z,13.31
2022-11-03T10:43:43.005Z,13.36
2022-11-03T10:46:29.512Z,13.40
2022-11-03T10:49:03.706Z,13.48
2022-11-03T10:51:30.357Z,13.57
2022-11-03T10:53:57.266Z,13.64
2022-11-03T10:56:24.057Z,13.70
2022-11-03T10:58:51.333Z,13.77
2022-11-03T11:01:18.169Z,13.80
2022-11-03T11:03:45.245Z,13.87
2022-11-03T11:06:22.913Z,13.93
2022-11-03T11:08:54.810Z,14.00
2022-11-03T11:11:24.282Z,14.07
2022-11-03T11:14:23.874Z,14.15
2022-11-03T11:16:59.892Z,14.20
2022-11-03T11:19:28.478Z,14.23
2022-11-03T11:21:54.937Z,14.26
2022-11-03T11:24:44.560Z,14.29
2022-11-03T11:27:32.630Z,14.32
2022-11-03T11:30:05.246Z,14.37
2022-11-03T11:32:47.131Z,14.42
2022-11-03T11:35:38.951Z,14.46
2022-11-03T11:38:43.835Z,14.50
2022-11-03T11:41:10.333Z,14.60
2022-11-03T11:43:37.192Z,14.70
2022-11-03T11:46:22.276Z,14.76
2022-11-03T11:48:57.679Z,14.82
2022-11-03T11:51:24.634Z,14.90
2022-11-03T11:54:09.912Z,14.96
2022-11-03T11:56:43.822Z,15.01
2022-11-03T11:59:24.264Z,15.08
2022-11-03T12:01:55.184Z,15.14
2022-11-03T12:04:29.640Z,15.21
2022-11-03T12:06:56.275Z,15.30
2022-11-03T12:09:26.143Z,15.38
2022-11-03T12:12:00.470Z,15.50
2022-11-03T12:14:33.546Z,15.55
2022-11-03T12:17:20.076Z,15.58
2022-11-03T12:19:54.127Z,15.66
2022-11-03T12:22:23.641Z,15.72
2022-11-03T12:24:53.843Z,15.78
2022-11-03T12:27:26.019Z,15.89
2022-11-03T12:29:54.317Z,16.02
2022-11-03T12:32:33.038Z,16.11
2022-11-03T12:35:04.813Z,16.21
2022-11-03T12:37:31.386Z,16.31
2022-11-03T12:39:58.123Z,16.39
2022-11-03T12:42:24.604Z,16.48
2022-11-03T12:44:51.380Z,16.57
2022-11-03T12:47:18.012Z,16.62
2022-11-03T12:49:44.517Z,16.68
2022-11-03T12:52:11.119Z,16.74
2022-11-03T12:54:37.714Z,16.81
2022-11-03T12:57:04.162Z,16.85
2022-11-03T12:59:30.698Z,16.83
2022-11-03T13:01:57.576Z,16.81
2022-11-03T13:04:24.367Z,16.76
2022-11-03T13:06:50.838Z,16.68
2022-11-03T13:09:17.496Z,16.62
2022-11-03T13:11:44.086Z,16.57
2022-11-03T13:14:10.576Z,16.50
2022-11-03T13:16:37.996Z,16.43
2022-11-03T13:19:04.578Z,16.38
2022-11-03T13:21:31.078Z,16.35
2022-11-03T13:23:57.742Z,16.32
2022-11-03T13:26:24.440Z,16.32
2022-11-03T13:28:51.037Z,16.33
2022-11-03T13:31:17.595Z,16.38
2022-11-03T13:33:44.239Z,16.39
2022-11-03T13:36:10.852Z,16.45
2022-11-03T13:38:37.605Z,16.48
2022-11-03T13:41:08.830Z,16.53
2022-11-03T13:43:36.098Z,16.57
2022-11-03T13:46:02.871Z,16.60
2022-11-03T13:51:16.646Z,16.62
2022-11-03T13:56:30.371Z,16.63
2022-11-03T14:01:43.870Z,16.58
2022-11-03T14:06:57.168Z,16.50
2022-11-03T14:09:24.370Z,16.48
2022-11-03T14:11:51.232Z,16.44
2022-11-03T14:14:17.709Z,16.42
2022-11-03T14:16:44.421Z,16.38
2022-11-03T14:19:11.034Z,16.37
2022-11-03T14:21:37.618Z,16.35
2022-11-03T14:24:06.712Z,16.32
2022-11-03T14:26:42.554Z,16.28
2022-11-03T14:29:09.780Z,16.26
2022-11-03T14:31:36.576Z,16.24
2022-11-03T14:34:03.051Z,16.21
2022-11-03T14:36:29.597Z,16.18
2022-11-03T14:38:56.241Z,16.14
2022-11-03T14:41:22.813Z,16.11
2022-11-03T14:43:49.383Z,16.06
2022-11-03T14:46:15.963Z,16.04
2022-11-03T14:48:42.660Z,16.01
2022-11-03T14:51:09.142Z,15.95
2022-11-03T14:53:35.637Z,15.89
2022-11-03T14:56:02.102Z,15.83
2022-11-03T14:58:28.777Z,15.75
2022-11-03T15:00:55.281Z,15.66
2022-11-03T15:03:21.966Z,15.56
2022-11-03T15:05:48.435Z,15.46
2022-11-03T15:08:17.424Z,15.36
2022-11-03T15:10:44.402Z,15.27
2022-11-03T15:13:11.020Z,15.19
2022-11-03T15:15:37.561Z,15.11
2022-11-03T15:18:04.203Z,15.04
2022-11-03T15:20:31.488Z,14.98
2022-11-03T15:25:44.534Z,14.81
2022-11-03T15:28:11.072Z,14.74
2022-11-03T15:30:38.076Z,14.68
2022-11-03T15:33:04.919Z,14.61
2022-11-03T15:35:31.764Z,14.54
2022-11-03T15:37:58.301Z,14.49
2022-11-03T15:40:26.226Z,14.45
2022-11-03T15:42:52.938Z,14.41
2022-11-03T15:45:19.423Z,14.38
2022-11-03T15:47:46.193Z,14.34
2022-11-03T15:50:13.182Z,14.31
2022-11-03T15:52:39.646Z,14.29
2022-11-03T15:55:07.350Z,14.25
2022-11-03T15:57:34.143Z,14.21
2022-11-03T16:00:00.937Z,14.19
2022-11-03T16:02:40.677Z,14.17
2022-11-03T16:05:09.414Z,14.12
2022-11-03T16:07:36.008Z,14.09
2022-11-03T16:10:02.898Z,14.08
2022-11-03T16:12:30.071Z,14.05
2022-11-03T16:14:56.609Z,14.01
2022-11-03T16:17:23.306Z,13.98
2022-11-03T16:19:50.602Z,13.95
2022-11-03T16:22:17.220Z,13.91
2022-11-03T16:24:43.805Z,13.86
2022-11-03T16:27:10.528Z,13.84
2022-11-03T16:29:37.078Z,13.79
2022-11-03T16:32:03.785Z,13.77
2022-11-03T16:34:30.252Z,13.73
2022-11-03T16:36:56.968Z,13.70
2022-11-03T16:39:23.461Z,13.69
2022-11-03T16:41:49.928Z,13.66
2022-11-03T16:44:16.509Z,13.64
2022-11-03T16:46:43.090Z,13.63
2022-11-03T16:49:09.709Z,13.60
2022-11-03T16:51:36.463Z,13.59
2022-11-03T16:54:03.019Z,13.55
2022-11-03T16:56:29.458Z,13.52
2022-11-03T16:58:56.079Z,13.49
2022-11-03T17:01:22.716Z,13.48
2022-11-03T17:03:49.497Z,13.45
2022-11-03T17:06:15.958Z,13.43
2022-11-03T17:08:57.732Z,13.41
2022-11-03T17:11:24.421Z,13.39
2022-11-03T17:13:51.068Z,13.36
2022-11-03T17:16:17.811Z,13.35
2022-11-03T17:18:44.272Z,13.32
2022-11-03T17:21:10.977Z,13.29
2022-11-03T17:23:37.532Z,13.28
2022-11-03T17:26:04.482Z,13.25
2022-11-03T17:28:31.391Z,13.22
2022-11-03T17:30:57.887Z,13.20
2022-11-03T17:33:24.386Z,13.17
2022-11-03T17:35:50.866Z,13.14
2022-11-03T17:38:18.478Z,13.12
2022-11-03T17:40:46.736Z,13.08
2022-11-03T17:43:33.550Z,13.05
2022-11-03T17:46:00.112Z,13.05
2022-11-03T17:48:26.593Z,13.03
2022-11-03T17:50:55.803Z,13.01
2022-11-03T17:53:28.697Z,13.00
2022-11-03T17:56:23.838Z,12.99
2022-11-03T17:58:46.999Z,12.96
2022-11-03T18:01:21.568Z,12.93
2022-11-03T18:03:48.459Z,12.93
2022-11-03T18:06:19.771Z,12.91
2022-11-03T18:08:47.622Z,12.90
2022-11-03T18:11:42.178Z,12.86
2022-11-03T18:14:08.761Z,12.86
2022-11-03T18:16:35.293Z,12.86
2022-11-03T18:19:01.875Z,12.84
2022-11-03T18:21:29.836Z,12.84
2022-11-03T18:23:56.322Z,12.76
2022-11-03T18:26:25.580Z,12.83
2022-11-03T18:28:52.518Z,12.84
2022-11-03T18:31:23.339Z,12.84
2022-11-03T18:33:51.709Z,12.85
2022-11-03T18:36:19.032Z,12.86
2022-11-03T18:38:46.115Z,12.86
2022-11-03T18:41:18.146Z,12.88
2022-11-03T18:43:44.801Z,12.88
2022-11-03T18:46:11.237Z,12.89
2022-11-03T18:48:37.830Z,12.91
2022-11-03T18:51:04.364Z,12.89
2022-11-03T18:53:30.969Z,12.90
2022-11-03T18:56:00.884Z,12.90
2022-11-03T18:58:27.620Z,12.92
2022-11-03T19:00:54.447Z,12.93
2022-11-03T19:03:23.299Z,12.94
2022-11-03T19:05:52.604Z,12.97
2022-11-03T19:08:25.573Z,12.97
2022-11-03T19:10:54.298Z,12.99
2022-11-03T19:13:27.272Z,13.00
2022-11-03T19:15:54.063Z,13.05
2022-11-03T19:18:20.750Z,13.07
2022-11-03T19:20:47.201Z,13.08
2022-11-03T19:23:13.710Z,13.10
2022-11-03T19:25:41.802Z,13.11
2022-11-03T19:28:11.205Z,13.04
2022-11-03T19:30:37.767Z,13.14
2022-11-03T19:33:05.274Z,13.18
2022-11-03T19:35:34.992Z,13.19
2022-11-03T19:38:04.640Z,13.21
2022-11-03T19:40:31.785Z,13.22
2022-11-03T19:42:58.573Z,13.23
2022-11-03T19:45:25.444Z,13.26
2022-11-03T19:50:46.120Z,13.28
2022-11-03T19:53:19.305Z,13.29
2022-11-03T19:55:46.267Z,13.31
2022-11-03T19:58:24.568Z,13.32
2022-11-03T20:00:51.987Z,13.34
2022-11-03T20:03:19.056Z,13.36
2022-11-03T20:05:49.479Z,13.37
2022-11-03T20:08:20.437Z,13.36
2022-11-03T20:10:47.305Z,13.37
2022-11-03T20:13:15.522Z,13.38
2022-11-03T20:15:42.307Z,13.39
2022-11-03T20:18:12.113Z,13.37
2022-11-03T20:20:40.234Z,13.39
2022-11-03T20:23:07.499Z,13.31
2022-11-03T20:25:35.686Z,13.39
2022-11-03T20:28:13.713Z,13.39
2022-11-03T20:30:40.100Z,13.30
2022-11-03T20:33:07.115Z,13.37
2022-11-03T20:35:35.463Z,13.38
2022-11-03T20:38:02.015Z,13.39
2022-11-03T20:40:31.718Z,13.40
2022-11-03T20:43:01.202Z,13.38
2022-11-03T20:45:28.041Z,13.38
2022-11-03T20:47:54.483Z,13.37
2022-11-03T20:50:21.029Z,13.38
2022-11-03T20:52:48.674Z,13.38
2022-11-03T20:55:21.200Z,13.34
2022-11-03T20:57:49.330Z,13.36
2022-11-03T21:00:26.843Z,13.31
2022-11-03T21:02:55.317Z,13.27
2022-11-03T21:05:25.170Z,13.25
2022-11-03T21:07:53.212Z,13.23
2022-11-03T21:10:20.848Z,13.13
2022-11-03T21:12:47.924Z,13.19
2022-11-03T21:15:17.066Z,13.16
2022-11-03T21:17:43.814Z,13.14
2022-11-03T21:20:10.857Z,13.11
2022-11-03T21:22:56.142Z,13.05
2022-11-03T21:25:24.221Z,13.01
2022-11-03T21:27:51.507Z,13.00
2022-11-03T21:30:18.409Z,12.99
2022-11-03T21:32:45.162Z,12.95
2022-11-03T21:35:15.287Z,12.95
2022-11-03T21:37:41.948Z,12.95
2022-11-03T21:40:09.186Z,12.94
2022-11-03T21:42:35.708Z,12.95
2022-11-03T21:45:02.286Z,12.96
2022-11-03T21:47:28.942Z,12.97
2022-11-03T21:49:55.499Z,12.98
2022-11-03T21:52:23.267Z,13.00
2022-11-03T21:54:49.736Z,13.00
2022-11-03T21:57:16.426Z,13.02
2022-11-03T21:59:43.031Z,13.04
2022-11-03T22:02:12.053Z,13.05
2022-11-03T22:04:38.737Z,13.06
2022-11-03T22:07:05.227Z,13.07
2022-11-03T22:09:31.917Z,13.10
2022-11-03T22:11:58.608Z,13.15
2022-11-03T22:14:25.356Z,13.15
2022-11-03T22:16:52.144Z,13.17
2022-11-03T22:19:22.536Z,13.20
2022-11-03T22:21:49.679Z,13.21
2022-11-03T22:24:16.247Z,13.22
2022-11-03T22:26:42.830Z,13.25
2022-11-03T22:29:09.276Z,13.26
2022-11-03T22:31:35.977Z,13.28
2022-11-03T22:34:02.536Z,13.29
2022-11-03T22:36:29.059Z,13.31
2022-11-03T22:38:55.501Z,13.33
2022-11-03T22:41:22.092Z,13.33
2022-11-03T22:43:48.765Z,13.34
2022-11-03T22:46:16.700Z,13.35
2022-11-03T22:48:43.987Z,13.36
2022-11-03T22:51:15.769Z,13.38
2022-11-03T22:53:43.405Z,13.39
2022-11-03T22:56:10.282Z,13.39
2022-11-03T22:58:37.000Z,13.40
2022-11-03T23:01:05.910Z,13.41
2022-11-03T23:03:37.902Z,13.43
2022-11-03T23:06:08.869Z,13.43
2022-11-03T23:08:37.344Z,13.44
2022-11-03T23:11:12.112Z,13.44
2022-11-03T23:13:38.853Z,13.42
2022-11-03T23:16:13.994Z,13.39
2022-11-03T23:18:40.771Z,13.39
2022-11-03T23:21:08.143Z,13.37
2022-11-03T23:23:36.894Z,13.36
2022-11-03T23:26:03.543Z,13.38
2022-11-03T23:28:30.049Z,13.30
2022-11-03T23:30:56.680Z,13.28
2022-11-03T23:33:23.141Z,13.25
2022-11-03T23:35:49.663Z,13.24
2022-11-03T23:38:16.239Z,13.26
2022-11-03T23:40:42.771Z,13.25
2022-11-03T23:43:09.325Z,13.30
2022-11-03T23:45:36.329Z,13.32
2022-11-03T23:48:03.121Z,13.38
2022-11-03T23:50:29.630Z,13.40
2022-11-03T23:52:56.140Z,13.49
2022-11-03T23:55:23.239Z,13.55
2022-11-03T23:57:49.774Z,13.60
